Time;durP1;ratioP1;P1;durP2;ratioP2;P2;SDS_P1;SDS_P2;PMS_P1;PMS_P2;Temp;Humidity;BMP_temperature;BMP_pressure;BME280_temperature;BME280_humidity;BME280_pressure;Samples;Min_cycle;Max_cycle;Signal;HPM_P1;HPM_P2
2022/11/16 00:00:58;;;;;;;;;;;;;;;;;;5072178;28;19913;-63
2022/11/16 00:03:24;;;;;;;;;;;;;;;;;;5070342;28;19916;-62
2022/11/16 00:05:49;;;;;;;;;;;;;;;;;;5083486;28;19917;-63
2022/11/16 00:08:14;;;;;;;;;;;;;;;;;;5067168;28;19916;-62
2022/11/16 00:10:39;;;;;;;;;;;;;;;;;;5069912;28;20016;-62
2022/11/16 00:13:04;;;;;;;;;;;;;;;;;;5072341;28;19913;-63
2022/11/16 00:15:29;;;;;;;;;;;;;;;;;;5068851;28;19916;-62
2022/11/16 00:17:54;;;;;;;;;;;;;;;;;;5071771;28;19912;-63
2022/11/16 00:20:19;;;;;;;;;;;;;;;;;;5074047;28;20007;-63
2022/11/16 00:22:45;;;;;;;;;;;;;;;;;;5068468;28;20399;-63
2022/11/16 00:25:10;;;;;;;;;;;;;;;;;;5070588;28;19920;-62
2022/11/16 00:27:35;;;;;;;;;;;;;;;;;;5067912;28;19966;-62
2022/11/16 00:30:00;;;;;;;;;;;;;;;;;;5073450;28;19915;-63
2022/11/16 00:32:26;;;;;;;;;;;;;;;;;;5070986;28;20062;-62
2022/11/16 00:34:51;;;;;;;;;;;;;;;;;;5071823;28;20015;-62
2022/11/16 00:37:16;;;;;;;;;;;;;;;;;;5069762;28;19919;-62
2022/11/16 00:39:41;;;;;;;;;;;;;;;;;;5072389;28;19920;-62
2022/11/16 00:42:06;;;;;;;;;;;;;;;;;;5069568;28;19917;-62
2022/11/16 00:44:31;;;;;;;;;;;;;;;;;;5070840;28;20277;-62
2022/11/16 00:46:56;;;;;;;;;;;;;;;;;;5071918;28;19917;-61
2022/11/16 00:49:22;;;;;;;;;;;;;;;;;;5072249;28;19912;-62
2022/11/16 00:51:47;;;;;;;;;;;;;;;;;;5073166;28;19947;-63
2022/11/16 00:54:12;;;;;;;;;;;;;;;;;;5069560;28;20338;-62
2022/11/16 00:56:37;;;;;;;;;;;;;;;;;;5070001;28;19916;-63
2022/11/16 00:59:02;;;;;;;;;;;;;;;;;;5077128;28;19923;-62
2022/11/16 01:01:27;;;;;;;;;;;;;;;;;;5092956;28;20383;-62
2022/11/16 01:03:52;;;;;;;;;;;;;;;;;;5075863;28;19912;-64
2022/11/16 01:06:19;;;;;;;;;;;;;;;;;;5072741;28;19963;-62
2022/11/16 01:08:44;;;;;;;;;;;;;;;;;;5075113;28;20402;-62
2022/11/16 01:13:53;;;;;;;;;;;;;;;;;;5071116;28;20008;-61
2022/11/16 01:16:18;;;;;;;;;;;;;;;;;;5069209;28;20003;-62
2022/11/16 01:18:43;;;;;;;;;;;;;;;;;;5071896;28;20433;-63
2022/11/16 01:21:08;;;;;;;;;;;;;;;;;;5071502;28;20450;-62
2022/11/16 01:23:33;;;;;;;;;;;;;;;;;;5072211;28;20452;-61
2022/11/16 01:26:01;;;;;;;;;;;;;;;;;;5066498;28;19966;-63
2022/11/16 01:28:26;;;;;;;;;;;;;;;;;;5063587;28;20007;-62
2022/11/16 01:30:52;;;;;;;;;;;;;;;;;;5070952;28;19966;-63
2022/11/16 01:33:17;;;;;;;;;;;;;;;;;;5086240;28;19924;-62
2022/11/16 01:35:42;;;;;;;;;;;;;;;;;;5069891;28;19997;-63
2022/11/16 01:38:07;;;;;;;;;;;;;;;;;;5070267;28;20377;-61
2022/11/16 01:40:32;;;;;;;;;;;;;;;;;;5072120;28;19916;-63
2022/11/16 01:42:57;;;;;;;;;;;;;;;;;;5071784;28;19923;-62
2022/11/16 01:45:22;;;;;;;;;;;;;;;;;;5073864;28;19913;-63
2022/11/16 01:47:54;;;;;;;;;;;;;;;;;;5066767;28;19916;-63
2022/11/16 01:50:19;;;;;;;;;;;;;;;;;;5071713;28;19916;-63
2022/11/16 01:52:44;;;;;;;;;;;;;;;;;;5065535;28;20015;-62
2022/11/16 01:55:09;;;;;;;;;;;;;;;;;;5072133;28;19912;-62
2022/11/16 01:57:34;;;;;;;;;;;;;;;;;;5063598;28;19921;-63
2022/11/16 01:59:59;;;;;;;;;;;;;;;;;;5072161;28;19915;-63
2022/11/16 02:02:25;;;;;;;;;;;;;;;;;;5071312;28;20351;-63
2022/11/16 02:04:50;;;;;;;;;;;;;;;;;;5070023;28;19958;-63
2022/11/16 02:07:15;;;;;;;;;;;;;;;;;;5082250;28;19921;-63
2022/11/16 02:09:52;;;;;;;;;;;;;;;;;;5077172;28;19916;-63
2022/11/16 02:12:17;;;;;;;;;;;;;;;;;;5072354;28;19916;-63
2022/11/16 02:14:42;;;;;;;;;;;;;;;;;;5072364;28;19912;-61
2022/11/16 02:17:07;;;;;;;;;;;;;;;;;;5059140;28;19921;-63
2022/11/16 02:19:32;;;;;;;;;;;;;;;;;;5068816;28;19912;-63
2022/11/16 02:21:58;;;;;;;;;;;;;;;;;;5070994;28;20399;-63
2022/11/16 02:24:23;;;;;;;;;;;;;;;;;;5070470;28;19928;-63
2022/11/16 02:26:48;;;;;;;;;;;;;;;;;;5069398;28;19913;-62
2022/11/16 02:29:13;;;;;;;;;;;;;;;;;;5065355;28;19913;-62
2022/11/16 02:31:38;;;;;;;;;;;;;;;;;;5076528;28;19912;-61
2022/11/16 02:34:03;;;;;;;;;;;;;;;;;;5074272;28;19999;-62
2022/11/16 02:36:28;;;;;;;;;;;;;;;;;;5073939;28;19948;-62
2022/11/16 02:38:53;;;;;;;;;;;;;;;;;;5078412;28;19995;-62
2022/11/16 02:41:19;;;;;;;;;;;;;;;;;;5075395;28;20327;-62
2022/11/16 02:43:44;;;;;;;;;;;;;;;;;;5073409;28;19916;-63
2022/11/16 02:46:09;;;;;;;;;;;;;;;;;;5077798;28;20343;-62
2022/11/16 02:48:34;;;;;;;;;;;;;;;;;;5072555;28;19913;-62
2022/11/16 02:50:59;;;;;;;;;;;;;;;;;;5072366;28;19974;-61
2022/11/16 02:53:24;;;;;;;;;;;;;;;;;;5074702;28;19912;-62
2022/11/16 02:55:49;;;;;;;;;;;;;;;;;;5075489;28;19913;-62
2022/11/16 02:58:15;;;;;;;;;;;;;;;;;;5071848;28;19990;-63
2022/11/16 03:00:42;;;;;;;;;;;;;;;;;;5079604;28;19923;-62
2022/11/16 03:03:07;;;;;;;;;;;;;;;;;;5079189;28;19935;-62
2022/11/16 03:05:32;;;;;;;;;;;;;;;;;;5072948;28;19912;-62
2022/11/16 03:07:57;;;;;;;;;;;;;;;;;;5091458;28;20397;-62
2022/11/16 03:13:06;;;;;;;;;;;;;;;;;;5063386;28;20057;-61
2022/11/16 03:15:31;;;;;;;;;;;;;;;;;;5071928;28;20018;-62
2022/11/16 03:17:56;;;;;;;;;;;;;;;;;;5066903;28;19920;-62
2022/11/16 03:20:22;;;;;;;;;;;;;;;;;;5079118;28;19909;-61
2022/11/16 03:22:47;;;;;;;;;;;;;;;;;;5083009;28;19916;-62
2022/11/16 03:25:12;;;;;;;;;;;;;;;;;;5090465;28;19920;-62
2022/11/16 03:27:37;;;;;;;;;;;;;;;;;;5070559;28;20327;-62
2022/11/16 03:30:02;;;;;;;;;;;;;;;;;;5074452;28;19924;-62
2022/11/16 03:32:27;;;;;;;;;;;;;;;;;;5076969;28;19919;-63
2022/11/16 03:34:52;;;;;;;;;;;;;;;;;;5080928;28;19926;-62
2022/11/16 03:37:18;;;;;;;;;;;;;;;;;;5075928;28;19912;-62
2022/11/16 03:39:43;;;;;;;;;;;;;;;;;;5071268;28;20106;-62
2022/11/16 03:42:08;;;;;;;;;;;;;;;;;;5071894;28;19923;-62
2022/11/16 03:44:33;;;;;;;;;;;;;;;;;;5071301;28;20339;-62
2022/11/16 03:46:58;;;;;;;;;;;;;;;;;;5073047;28;19912;-63
2022/11/16 03:49:23;;;;;;;;;;;;;;;;;;5088619;28;20024;-61
2022/11/16 03:51:48;;;;;;;;;;;;;;;;;;5088541;28;19915;-63
2022/11/16 03:54:13;;;;;;;;;;;;;;;;;;5071277;28;19916;-62
2022/11/16 03:56:38;;;;;;;;;;;;;;;;;;5074622;28;19908;-63
2022/11/16 03:59:04;;;;;;;;;;;;;;;;;;5073578;28;19974;-63
2022/11/16 04:01:29;;;;;;;;;;;;;;;;;;5072696;28;20361;-63
2022/11/16 04:03:54;;;;;;;;;;;;;;;;;;5069694;28;20288;-63
2022/11/16 04:25:27;;;;;;;;;;;;;;;;;;5057515;28;20037;-62
2022/11/16 04:38:58;;;;;;;;;;;;;;;;;;5070423;28;19919;-62
2022/11/16 04:44:06;;;;;;;;;;;;;;;;;;5071354;28;19920;-61
2022/11/16 04:49:15;;;;;;;;;;;;;;;;;;5070536;28;20359;-62
2022/11/16 04:51:41;;;;;;;;;;;;;;;;;;5068413;28;20396;-63
2022/11/16 04:54:06;;;;;;;;;;;;;;;;;;5067566;28;20393;-63
2022/11/16 04:56:31;;;;;;;;;;;;;;;;;;5069805;28;20006;-63
2022/11/16 04:58:56;;;;;;;;;;;;;;;;;;5069136;28;19916;-62
2022/11/16 05:02:06;;;;;;;;;;;;;;;;;;5082852;28;20269;-62
2022/11/16 05:04:09;;;;;;;;;;;;;;;;;;5068702;28;19913;-62
2022/11/16 05:06:34;;;;;;;;;;;;;;;;;;5068902;28;19915;-62
2022/11/16 05:08:59;;;;;;;;;;;;;;;;;;5066913;28;20280;-62
2022/11/16 05:11:24;;;;;;;;;;;;;;;;;;5069591;28;19962;-63
2022/11/16 05:13:49;;;;;;;;;;;;;;;;;;5067957;28;19920;-62
2022/11/16 05:16:14;;;;;;;;;;;;;;;;;;5072737;28;20564;-63
2022/11/16 05:18:39;;;;;;;;;;;;;;;;;;5068179;28;19909;-63
2022/11/16 05:21:05;;;;;;;;;;;;;;;;;;5070682;28;19924;-63
2022/11/16 05:26:33;;;;;;;;;;;;;;;;;;5070206;28;19964;-63
2022/11/16 05:28:59;;;;;;;;;;;;;;;;;;5070421;28;20045;-63
2022/11/16 05:31:24;;;;;;;;;;;;;;;;;;5070430;28;19950;-63
2022/11/16 05:33:49;;;;;;;;;;;;;;;;;;5072194;28;20341;-62
2022/11/16 05:36:14;;;;;;;;;;;;;;;;;;5073738;28;19916;-64
2022/11/16 05:38:39;;;;;;;;;;;;;;;;;;5076351;28;19912;-63
2022/11/16 05:41:04;;;;;;;;;;;;;;;;;;5070361;28;19919;-63
2022/11/16 05:43:29;;;;;;;;;;;;;;;;;;5069069;28;20007;-62
2022/11/16 05:45:54;;;;;;;;;;;;;;;;;;5071723;28;19999;-62
2022/11/16 05:48:19;;;;;;;;;;;;;;;;;;5078196;28;19960;-62
2022/11/16 05:50:45;;;;;;;;;;;;;;;;;;5072844;28;20705;-63
2022/11/16 05:53:10;;;;;;;;;;;;;;;;;;5066296;28;20457;-63
2022/11/16 05:55:35;;;;;;;;;;;;;;;;;;5082768;28;19981;-63
2022/11/16 05:58:00;;;;;;;;;;;;;;;;;;5083638;28;19974;-62
2022/11/16 06:00:25;;;;;;;;;;;;;;;;;;5076110;28;19917;-62
2022/11/16 06:02:51;;;;;;;;;;;;;;;;;;5082848;28;19912;-63
2022/11/16 06:05:16;;;;;;;;;;;;;;;;;;5089388;28;19995;-62
2022/11/16 06:07:41;;;;;;;;;;;;;;;;;;5085386;28;19912;-61
2022/11/16 06:10:06;;;;;;;;;;;;;;;;;;5073234;28;19916;-63
2022/11/16 06:12:31;;;;;;;;;;;;;;;;;;5073607;28;20368;-62
2022/11/16 06:14:56;;;;;;;;;;;;;;;;;;5072423;28;20066;-63
2022/11/16 06:17:21;;;;;;;;;;;;;;;;;;5074456;28;19963;-62
2022/11/16 06:19:46;;;;;;;;;;;;;;;;;;5075184;28;19938;-62
2022/11/16 06:22:12;;;;;;;;;;;;;;;;;;5073773;28;19961;-62
2022/11/16 06:24:37;;;;;;;;;;;;;;;;;;5074880;28;20015;-62
2022/11/16 06:27:02;;;;;;;;;;;;;;;;;;5068482;28;20355;-62
2022/11/16 06:29:27;;;;;;;;;;;;;;;;;;5064749;28;19948;-62
2022/11/16 06:31:52;;;;;;;;;;;;;;;;;;5061786;28;19912;-63
2022/11/16 06:34:17;;;;;;;;;;;;;;;;;;5065111;28;19912;-62
2022/11/16 06:36:42;;;;;;;;;;;;;;;;;;5079489;28;20338;-62
2022/11/16 06:39:10;;;;;;;;;;;;;;;;;;5079774;28;19966;-62
2022/11/16 06:41:35;;;;;;;;;;;;;;;;;;5075298;28;20458;-62
2022/11/16 06:44:00;;;;;;;;;;;;;;;;;;5069727;28;19952;-62
2022/11/16 06:46:25;;;;;;;;;;;;;;;;;;5073040;28;19967;-62
2022/11/16 06:48:50;;;;;;;;;;;;;;;;;;5085509;28;19908;-62
2022/11/16 06:51:15;;;;;;;;;;;;;;;;;;5073020;28;19917;-62
2022/11/16 06:53:40;;;;;;;;;;;;;;;;;;5071338;28;20266;-62
2022/11/16 06:56:06;;;;;;;;;;;;;;;;;;5069336;28;19925;-61
2022/11/16 06:58:31;;;;;;;;;;;;;;;;;;5073358;28;19912;-62
2022/11/16 07:00:56;;;;;;;;;;;;;;;;;;5068544;28;20446;-62
2022/11/16 07:03:21;;;;;;;;;;;;;;;;;;5064935;28;19912;-62
2022/11/16 07:05:46;;;;;;;;;;;;;;;;;;5062076;28;19948;-62
2022/11/16 07:08:11;;;;;;;;;;;;;;;;;;5064266;28;20478;-61
2022/11/16 07:10:37;;;;;;;;;;;;;;;;;;5064391;28;19924;-62
2022/11/16 07:13:02;;;;;;;;;;;;;;;;;;5064227;28;21405;-61
2022/11/16 07:15:27;;;;;;;;;;;;;;;;;;5062014;28;19920;-62
2022/11/16 07:17:52;;;;;;;;;;;;;;;;;;5055162;28;20364;-63
2022/11/16 07:20:18;;;;;;;;;;;;;;;;;;5071489;28;19924;-62
2022/11/16 07:22:43;;;;;;;;;;;;;;;;;;5070612;28;20387;-62
2022/11/16 07:25:08;;;;;;;;;;;;;;;;;;5059915;28;20006;-61
2022/11/16 07:27:35;;;;;;;;;;;;;;;;;;5060027;28;20436;-62
2022/11/16 07:30:01;;;;;;;;;;;;;;;;;;5058609;28;19917;-63
2022/11/16 07:32:26;;;;;;;;;;;;;;;;;;5064102;28;19924;-62
2022/11/16 07:34:51;;;;;;;;;;;;;;;;;;5073943;28;20304;-61
2022/11/16 07:37:16;;;;;;;;;;;;;;;;;;5061224;28;19912;-62
2022/11/16 07:39:41;;;;;;;;;;;;;;;;;;5069363;28;19916;-63
2022/11/16 07:42:10;;;;;;;;;;;;;;;;;;5069399;28;19917;-64
2022/11/16 07:44:35;;;;;;;;;;;;;;;;;;5071790;28;19916;-62
2022/11/16 07:47:00;;;;;;;;;;;;;;;;;;5074046;28;19909;-63
2022/11/16 07:49:25;;;;;;;;;;;;;;;;;;5067743;28;19921;-62
2022/11/16 07:51:50;;;;;;;;;;;;;;;;;;5074025;28;19912;-62
2022/11/16 07:54:16;;;;;;;;;;;;;;;;;;5072417;28;20368;-62
2022/11/16 07:56:41;;;;;;;;;;;;;;;;;;5067629;28;19913;-63
2022/11/16 07:59:06;;;;;;;;;;;;;;;;;;5056173;28;19913;-63
2022/11/16 08:01:32;;;;;;;;;;;;;;;;;;5066771;28;19912;-62
2022/11/16 08:03:57;;;;;;;;;;;;;;;;;;5058044;28;19927;-62
2022/11/16 08:06:22;;;;;;;;;;;;;;;;;;5062443;28;19919;-65
2022/11/16 08:08:47;;;;;;;;;;;;;;;;;;5066721;28;20525;-75
2022/11/16 08:11:12;;;;;;;;;;;;;;;;;;5068876;28;19912;-75
2022/11/16 08:13:37;;;;;;;;;;;;;;;;;;5074006;28;20019;-70
2022/11/16 08:16:02;;;;;;;;;;;;;;;;;;5058734;28;19920;-69
2022/11/16 08:18:28;;;;;;;;;;;;;;;;;;5061923;28;20428;-70
2022/11/16 08:20:53;;;;;;;;;;;;;;;;;;5059185;28;19912;-70
2022/11/16 08:23:18;;;;;;;;;;;;;;;;;;5065947;28;19970;-69
2022/11/16 08:25:43;;;;;;;;;;;;;;;;;;5074710;28;19913;-69
2022/11/16 08:28:08;;;;;;;;;;;;;;;;;;5061629;28;19917;-69
2022/11/16 08:30:33;;;;;;;;;;;;;;;;;;5067450;28;20015;-70
2022/11/16 08:32:58;;;;;;;;;;;;;;;;;;5067390;28;19913;-69
2022/11/16 08:35:24;;;;;;;;;;;;;;;;;;5059008;28;19924;-70
2022/11/16 08:37:49;;;;;;;;;;;;;;;;;;5065061;28;19974;-70
2022/11/16 08:40:14;;;;;;;;;;;;;;;;;;5065968;28;20293;-70
2022/11/16 08:42:39;;;;;;;;;;;;;;;;;;5069744;28;20385;-70
2022/11/16 08:45:05;;;;;;;;;;;;;;;;;;5066285;28;19913;-70
2022/11/16 08:47:30;;;;;;;;;;;;;;;;;;5065691;28;19912;-70
2022/11/16 08:49:55;;;;;;;;;;;;;;;;;;5068639;28;19917;-70
2022/11/16 08:52:20;;;;;;;;;;;;;;;;;;5063670;28;20309;-70
2022/11/16 08:54:46;;;;;;;;;;;;;;;;;;5071905;28;20283;-70
2022/11/16 08:57:11;;;;;;;;;;;;;;;;;;5065903;28;20360;-70
2022/11/16 08:59:36;;;;;;;;;;;;;;;;;;5060598;28;20292;-71
2022/11/16 09:02:01;;;;;;;;;;;;;;;;;;5056248;28;20063;-70
2022/11/16 09:04:26;;;;;;;;;;;;;;;;;;5061434;28;20008;-70
2022/11/16 09:06:51;;;;;;;;;;;;;;;;;;5059592;28;19913;-70
2022/11/16 09:09:17;;;;;;;;;;;;;;;;;;5064496;28;21531;-71
2022/11/16 09:11:42;;;;;;;;;;;;;;;;;;5059928;28;19921;-69
2022/11/16 09:14:07;;;;;;;;;;;;;;;;;;5057795;28;20021;-70
2022/11/16 09:16:32;;;;;;;;;;;;;;;;;;5059734;28;20494;-70
2022/11/16 09:18:57;;;;;;;;;;;;;;;;;;5055873;28;20280;-70
2022/11/16 09:21:22;;;;;;;;;;;;;;;;;;5066984;28;20296;-69
2022/11/16 09:23:47;;;;;;;;;;;;;;;;;;5063317;28;19975;-71
2022/11/16 09:26:13;;;;;;;;;;;;;;;;;;5061092;28;19935;-70
2022/11/16 09:28:38;;;;;;;;;;;;;;;;;;5053191;28;20261;-70
2022/11/16 09:31:04;;;;;;;;;;;;;;;;;;5062395;28;19921;-70
2022/11/16 09:33:30;;;;;;;;;;;;;;;;;;5058317;28;19916;-70
2022/11/16 09:35:55;;;;;;;;;;;;;;;;;;5064967;28;21250;-69
2022/11/16 09:38:20;;;;;;;;;;;;;;;;;;5062013;28;19920;-70
2022/11/16 09:40:45;;;;;;;;;;;;;;;;;;5060648;28;19916;-71
2022/11/16 09:43:10;;;;;;;;;;;;;;;;;;5070376;28;19967;-70
2022/11/16 09:45:35;;;;;;;;;;;;;;;;;;5062745;28;19928;-70
2022/11/16 09:48:01;;;;;;;;;;;;;;;;;;5056841;28;19979;-68
2022/11/16 09:50:26;;;;;;;;;;;;;;;;;;5067772;28;19912;-70
2022/11/16 09:52:52;;;;;;;;;;;;;;;;;;5067163;28;19959;-69
2022/11/16 09:55:17;;;;;;;;;;;;;;;;;;5059504;28;20481;-69
2022/11/16 09:57:42;;;;;;;;;;;;;;;;;;5056012;28;19921;-69
2022/11/16 10:00:07;;;;;;;;;;;;;;;;;;5067165;28;19958;-69
2022/11/16 10:02:32;;;;;;;;;;;;;;;;;;5064496;28;19908;-70
2022/11/16 10:04:57;;;;;;;;;;;;;;;;;;5060459;28;19917;-69
2022/11/16 10:07:22;;;;;;;;;;;;;;;;;;5063101;28;19965;-70
2022/11/16 10:09:47;;;;;;;;;;;;;;;;;;5064781;28;20407;-71
2022/11/16 10:12:13;;;;;;;;;;;;;;;;;;5066751;28;19920;-69
2022/11/16 10:14:38;;;;;;;;;;;;;;;;;;5076166;28;19921;-69
2022/11/16 10:17:03;;;;;;;;;;;;;;;;;;5061687;28;19913;-70
2022/11/16 10:19:28;;;;;;;;;;;;;;;;;;5057344;28;19955;-69
2022/11/16 10:21:53;;;;;;;;;;;;;;;;;;5059902;28;20337;-70
2022/11/16 10:24:18;;;;;;;;;;;;;;;;;;5068771;28;19924;-69
2022/11/16 10:26:44;;;;;;;;;;;;;;;;;;5056192;28;20020;-71
2022/11/16 10:29:09;;;;;;;;;;;;;;;;;;5061872;28;19912;-69
2022/11/16 10:31:34;;;;;;;;;;;;;;;;;;5061418;28;19956;-64
2022/11/16 10:33:59;;;;;;;;;;;;;;;;;;5060255;28;19912;-65
2022/11/16 10:36:26;;;;;;;;;;;;;;;;;;5059462;28;19955;-66
2022/11/16 10:38:51;;;;;;;;;;;;;;;;;;5061277;28;20044;-66
2022/11/16 10:41:16;;;;;;;;;;;;;;;;;;5060447;28;20019;-67
2022/11/16 10:43:41;;;;;;;;;;;;;;;;;;5059195;28;19912;-66
2022/11/16 10:46:06;;;;;;;;;;;;;;;;;;5056797;28;19912;-66
2022/11/16 10:48:35;;;;;;;;;;;;;;;;;;5058599;28;19917;-69
2022/11/16 10:51:01;;;;;;;;;;;;;;;;;;5062949;28;19920;-65
2022/11/16 10:53:26;;;;;;;;;;;;;;;;;;5059262;28;19920;-70
2022/11/16 10:55:51;;;;;;;;;;;;;;;;;;5065900;28;19916;-65
2022/11/16 10:58:16;;;;;;;;;;;;;;;;;;5059993;28;20418;-64
2022/11/16 11:00:41;;;;;;;;;;;;;;;;;;5065046;28;19913;-69
2022/11/16 11:03:08;;;;;;;;;;;;;;;;;;5062330;28;19916;-65
2022/11/16 11:05:33;;;;;;;;;;;;;;;;;;5061729;28;20015;-65
2022/11/16 11:07:58;;;;;;;;;;;;;;;;;;5063627;28;19999;-65
2022/11/16 11:10:23;;;;;;;;;;;;;;;;;;5065415;28;19928;-65
2022/11/16 11:12:48;;;;;;;;;;;;;;;;;;5060203;28;19936;-67
2022/11/16 11:15:14;;;;;;;;;;;;;;;;;;5057379;28;19917;-66
2022/11/16 11:17:39;;;;;;;;;;;;;;;;;;5063540;28;19912;-67
2022/11/16 11:20:04;;;;;;;;;;;;;;;;;;5061093;28;20001;-68
2022/11/16 11:22:30;;;;;;;;;;;;;;;;;;5061474;28;19920;-65
2022/11/16 11:24:55;;;;;;;;;;;;;;;;;;5062367;28;19928;-66
2022/11/16 11:27:21;;;;;;;;;;;;;;;;;;5064374;28;19967;-69
2022/11/16 11:29:46;;;;;;;;;;;;;;;;;;5064747;28;20297;-70
2022/11/16 11:32:11;;;;;;;;;;;;;;;;;;5067813;28;20361;-70
2022/11/16 11:34:36;;;;;;;;;;;;;;;;;;5065855;28;19974;-69
2022/11/16 11:37:01;;;;;;;;;;;;;;;;;;5063829;28;19913;-70
2022/11/16 11:39:27;;;;;;;;;;;;;;;;;;5070386;28;19916;-68
2022/11/16 11:41:52;;;;;;;;;;;;;;;;;;5057908;28;19916;-70
2022/11/16 11:44:17;;;;;;;;;;;;;;;;;;5069014;28;19908;-70
2022/11/16 11:46:43;;;;;;;;;;;;;;;;;;5067612;28;19964;-70
2022/11/16 11:49:08;;;;;;;;;;;;;;;;;;5064154;28;20385;-69
2022/11/16 11:51:33;;;;;;;;;;;;;;;;;;5064674;28;19920;-69
2022/11/16 11:53:58;;;;;;;;;;;;;;;;;;5065434;28;19912;-69
2022/11/16 11:56:23;;;;;;;;;;;;;;;;;;5065158;28;19921;-68
2022/11/16 11:58:49;;;;;;;;;;;;;;;;;;5055706;28;19975;-66
2022/11/16 12:01:14;;;;;;;;;;;;;;;;;;5062009;28;19995;-69
2022/11/16 12:03:39;;;;;;;;;;;;;;;;;;5062723;28;19916;-70
2022/11/16 12:06:04;;;;;;;;;;;;;;;;;;5060020;28;20274;-68
2022/11/16 12:08:29;;;;;;;;;;;;;;;;;;5060755;28;20307;-69
2022/11/16 12:10:55;;;;;;;;;;;;;;;;;;5060553;28;19920;-70
2022/11/16 12:13:20;;;;;;;;;;;;;;;;;;5084162;28;19961;-70
2022/11/16 12:15:45;;;;;;;;;;;;;;;;;;5069677;28;20341;-70
2022/11/16 12:18:10;;;;;;;;;;;;;;;;;;5064152;28;20431;-69
2022/11/16 12:20:35;;;;;;;;;;;;;;;;;;5063988;28;19920;-69
2022/11/16 12:23:00;;;;;;;;;;;;;;;;;;5070531;28;19916;-70
2022/11/16 12:25:25;;;;;;;;;;;;;;;;;;5069739;28;19912;-70
2022/11/16 12:27:50;;;;;;;;;;;;;;;;;;5066283;28;19912;-69
2022/11/16 12:30:16;;;;;;;;;;;;;;;;;;5065761;28;19913;-69
2022/11/16 12:32:41;;;;;;;;;;;;;;;;;;5067666;28;19956;-70
2022/11/16 12:35:06;;;;;;;;;;;;;;;;;;5071780;28;20144;-70
2022/11/16 12:37:31;;;;;;;;;;;;;;;;;;5065678;28;19966;-70
2022/11/16 12:39:56;;;;;;;;;;;;;;;;;;5062996;28;19913;-71
2022/11/16 12:42:21;;;;;;;;;;;;;;;;;;5062677;28;19919;-69
2022/11/16 12:44:47;;;;;;;;;;;;;;;;;;5067844;28;19962;-70
2022/11/16 12:47:12;;;;;;;;;;;;;;;;;;5071984;28;19909;-69
2022/11/16 12:49:37;;;;;;;;;;;;;;;;;;5069084;28;20376;-68
2022/11/16 12:52:02;;;;;;;;;;;;;;;;;;5063109;28;20372;-69
2022/11/16 12:54:27;;;;;;;;;;;;;;;;;;5062928;28;20385;-69
2022/11/16 12:56:52;;;;;;;;;;;;;;;;;;5067352;28;19908;-68
2022/11/16 12:59:17;;;;;;;;;;;;;;;;;;5057992;28;20022;-67
2022/11/16 13:01:43;;;;;;;;;;;;;;;;;;5071759;28;19912;-65
2022/11/16 13:04:08;;;;;;;;;;;;;;;;;;5056670;28;19924;-64
2022/11/16 13:06:33;;;;;;;;;;;;;;;;;;5090069;28;19964;-65
2022/11/16 13:08:58;;;;;;;;;;;;;;;;;;5065741;28;19919;-66
2022/11/16 13:11:24;;;;;;;;;;;;;;;;;;5063140;28;19917;-66
2022/11/16 13:13:49;;;;;;;;;;;;;;;;;;5067120;28;19913;-65
2022/11/16 13:16:16;;;;;;;;;;;;;;;;;;5055496;28;19935;-66
2022/11/16 13:18:41;;;;;;;;;;;;;;;;;;5059682;28;19965;-66
2022/11/16 13:21:06;;;;;;;;;;;;;;;;;;5069794;28;19916;-67
2022/11/16 13:23:31;;;;;;;;;;;;;;;;;;5058197;28;19920;-66
2022/11/16 13:25:57;;;;;;;;;;;;;;;;;;5066997;28;19913;-67
2022/11/16 13:28:22;;;;;;;;;;;;;;;;;;5064263;28;19981;-65
2022/11/16 13:30:47;;;;;;;;;;;;;;;;;;5062789;28;20694;-65
2022/11/16 13:33:12;;;;;;;;;;;;;;;;;;5081541;28;19912;-66
2022/11/16 13:35:37;;;;;;;;;;;;;;;;;;5060976;28;19966;-65
2022/11/16 13:38:02;;;;;;;;;;;;;;;;;;5062516;28;19967;-66
2022/11/16 13:40:28;;;;;;;;;;;;;;;;;;5058813;28;19916;-64
2022/11/16 13:42:53;;;;;;;;;;;;;;;;;;5061421;28;19912;-65
2022/11/16 13:45:18;;;;;;;;;;;;;;;;;;5058589;28;19921;-65
2022/11/16 13:47:43;;;;;;;;;;;;;;;;;;5064312;28;19952;-67
2022/11/16 13:50:08;;;;;;;;;;;;;;;;;;5064262;28;19943;-66
2022/11/16 13:52:33;;;;;;;;;;;;;;;;;;5063228;28;20399;-66
2022/11/16 13:55:00;;;;;;;;;;;;;;;;;;5059658;28;19925;-66
2022/11/16 13:57:25;;;;;;;;;;;;;;;;;;5056079;28;19920;-64
2022/11/16 13:59:50;;;;;;;;;;;;;;;;;;5068945;28;19935;-67
2022/11/16 14:02:15;;;;;;;;;;;;;;;;;;5078991;28;20378;-64
2022/11/16 14:04:41;;;;;;;;;;;;;;;;;;5066999;28;20372;-72
2022/11/16 14:07:06;;;;;;;;;;;;;;;;;;5060465;28;19920;-73
2022/11/16 14:09:31;;;;;;;;;;;;;;;;;;5058999;28;19924;-67
2022/11/16 14:11:56;;;;;;;;;;;;;;;;;;5065644;28;19913;-63
2022/11/16 14:14:21;;;;;;;;;;;;;;;;;;5057725;28;19912;-63
2022/11/16 14:16:47;;;;;;;;;;;;;;;;;;5069851;28;20420;-63
2022/11/16 14:19:12;;;;;;;;;;;;;;;;;;5062329;28;19920;-63
2022/11/16 14:21:37;;;;;;;;;;;;;;;;;;5058812;28;20134;-64
2022/11/16 14:24:02;;;;;;;;;;;;;;;;;;5062699;28;19928;-63
2022/11/16 14:26:27;;;;;;;;;;;;;;;;;;5068233;28;20035;-63
2022/11/16 14:28:52;;;;;;;;;;;;;;;;;;5074130;28;20046;-63
2022/11/16 14:31:18;;;;;;;;;;;;;;;;;;5064210;28;19924;-62
2022/11/16 14:33:43;;;;;;;;;;;;;;;;;;5063133;28;20362;-63
2022/11/16 14:36:08;;;;;;;;;;;;;;;;;;5063373;28;19932;-63
2022/11/16 14:38:33;;;;;;;;;;;;;;;;;;5067429;28;19912;-64
2022/11/16 14:40:58;;;;;;;;;;;;;;;;;;5061859;28;20530;-63
2022/11/16 14:43:23;;;;;;;;;;;;;;;;;;5063901;28;19920;-63
2022/11/16 14:45:49;;;;;;;;;;;;;;;;;;5057637;28;19917;-63
2022/11/16 14:48:14;;;;;;;;;;;;;;;;;;5062795;28;19913;-64
2022/11/16 14:50:39;;;;;;;;;;;;;;;;;;5063411;28;20402;-63
2022/11/16 14:53:04;;;;;;;;;;;;;;;;;;5064726;28;19919;-63
2022/11/16 14:55:29;;;;;;;;;;;;;;;;;;5061940;28;19924;-64
2022/11/16 14:57:54;;;;;;;;;;;;;;;;;;5063490;28;19912;-63
2022/11/16 15:00:19;;;;;;;;;;;;;;;;;;5061795;28;21300;-63
2022/11/16 15:02:44;;;;;;;;;;;;;;;;;;5061262;28;19913;-63
2022/11/16 15:05:11;;;;;;;;;;;;;;;;;;5062257;28;19912;-63
2022/11/16 15:07:36;;;;;;;;;;;;;;;;;;5074570;28;20226;-64
2022/11/16 15:10:01;;;;;;;;;;;;;;;;;;5058015;28;20356;-63
2022/11/16 15:12:43;;;;;;;;;;;;;;;;;;5071727;28;19916;-64
2022/11/16 15:15:08;;;;;;;;;;;;;;;;;;5062251;28;19924;-61
2022/11/16 15:17:33;;;;;;;;;;;;;;;;;;5064266;28;19958;-63
2022/11/16 15:19:58;;;;;;;;;;;;;;;;;;5062520;28;19916;-62
2022/11/16 15:22:23;;;;;;;;;;;;;;;;;;5069160;28;20020;-63
2022/11/16 15:24:48;;;;;;;;;;;;;;;;;;5077765;28;19928;-65
2022/11/16 15:27:14;;;;;;;;;;;;;;;;;;5074723;28;19916;-63
2022/11/16 15:29:39;;;;;;;;;;;;;;;;;;5055962;28;19924;-62
2022/11/16 15:32:04;;;;;;;;;;;;;;;;;;5066880;28;20003;-63
2022/11/16 15:34:29;;;;;;;;;;;;;;;;;;5065854;28;19927;-64
2022/11/16 15:36:54;;;;;;;;;;;;;;;;;;5059957;28;19912;-64
2022/11/16 15:39:20;;;;;;;;;;;;;;;;;;5070620;28;19920;-63
2022/11/16 15:41:45;;;;;;;;;;;;;;;;;;5070793;28;20002;-63
2022/11/16 15:44:10;;;;;;;;;;;;;;;;;;5070186;28;19961;-63
2022/11/16 15:46:35;;;;;;;;;;;;;;;;;;5080619;28;19916;-63
2022/11/16 15:49:00;;;;;;;;;;;;;;;;;;5074240;28;19908;-63
2022/11/16 15:51:32;;;;;;;;;;;;;;;;;;5070957;28;19938;-63
2022/11/16 15:53:57;;;;;;;;;;;;;;;;;;5067373;28;19919;-63
2022/11/16 15:56:22;;;;;;;;;;;;;;;;;;5072559;28;19916;-63
2022/11/16 15:58:47;;;;;;;;;;;;;;;;;;5064045;28;20494;-63
2022/11/16 16:01:12;;;;;;;;;;;;;;;;;;5072133;28;20373;-63
2022/11/16 16:03:37;;;;;;;;;;;;;;;;;;5069443;28;20441;-63
2022/11/16 16:06:03;;;;;;;;;;;;;;;;;;5074076;28;20395;-63
2022/11/16 16:08:29;;;;;;;;;;;;;;;;;;5068944;28;19947;-63
2022/11/16 16:10:54;;;;;;;;;;;;;;;;;;5061635;28;19912;-64
2022/11/16 16:13:19;;;;;;;;;;;;;;;;;;5058246;28;20012;-64
2022/11/16 16:15:44;;;;;;;;;;;;;;;;;;5070600;28;19923;-64
2022/11/16 16:18:09;;;;;;;;;;;;;;;;;;5079085;28;19919;-63
2022/11/16 16:20:34;;;;;;;;;;;;;;;;;;5070819;28;19938;-63
2022/11/16 16:22:59;;;;;;;;;;;;;;;;;;5066162;28;20003;-63
2022/11/16 16:25:24;;;;;;;;;;;;;;;;;;5066980;28;19920;-64
2022/11/16 16:27:50;;;;;;;;;;;;;;;;;;5063367;28;19947;-64
2022/11/16 16:30:15;;;;;;;;;;;;;;;;;;5069030;28;20281;-64
2022/11/16 16:32:40;;;;;;;;;;;;;;;;;;5066732;28;20402;-63
2022/11/16 16:35:05;;;;;;;;;;;;;;;;;;5064995;28;20297;-63
2022/11/16 16:37:30;;;;;;;;;;;;;;;;;;5071465;28;20277;-64
2022/11/16 16:39:55;;;;;;;;;;;;;;;;;;5065721;28;20014;-64
2022/11/16 16:42:20;;;;;;;;;;;;;;;;;;5070423;28;19913;-64
2022/11/16 16:44:46;;;;;;;;;;;;;;;;;;5067687;28;20368;-64
2022/11/16 16:47:11;;;;;;;;;;;;;;;;;;5065136;28;20389;-64
2022/11/16 16:49:36;;;;;;;;;;;;;;;;;;5064565;28;20084;-64
2022/11/16 16:52:01;;;;;;;;;;;;;;;;;;5076324;28;19927;-63
2022/11/16 16:54:27;;;;;;;;;;;;;;;;;;5073598;28;19917;-63
2022/11/16 16:56:52;;;;;;;;;;;;;;;;;;5061609;28;19917;-63
2022/11/16 16:59:17;;;;;;;;;;;;;;;;;;5073128;28;19944;-63
2022/11/16 17:01:42;;;;;;;;;;;;;;;;;;5080576;28;19913;-63
2022/11/16 17:04:08;;;;;;;;;;;;;;;;;;5070257;28;19923;-63
2022/11/16 17:06:33;;;;;;;;;;;;;;;;;;5058036;28;19928;-63
2022/11/16 17:08:58;;;;;;;;;;;;;;;;;;5060920;28;19952;-63
2022/11/16 17:11:23;;;;;;;;;;;;;;;;;;5061487;28;20372;-63
2022/11/16 17:13:48;;;;;;;;;;;;;;;;;;5060544;28;20412;-63
2022/11/16 17:16:13;;;;;;;;;;;;;;;;;;5066035;28;19920;-65